This is the latest recevied weather packets stored in our database for station/object N9WHM. If no packets are shown the sender has not sent any weather packets the latest 10 day(s).
| Time | Temp. | Humidity | Pressure | Rain* | Wind** | Luminosity | Snow |
|---|---|---|---|---|---|---|---|
| 1778034450 | 8.89° C | 37% | 1014 hPa | 0 mm | - | 0 W/m² | - |
| 1778034148 | 9.44° C | 36% | 1014.1 hPa | 0 mm | - | 0 W/m² | - |
| 1778033846 | 9.44° C | 37% | 1013.7 hPa | 0 mm | - | 0 W/m² | - |
| 1778033543 | 9.44° C | 37% | 1013.7 hPa | 0 mm | - | 0 W/m² | - |
| 1778033240 | 9.44° C | 37% | 1013.5 hPa | 0 mm | - | 0 W/m² | - |
| 1778032938 | 9.44° C | 36% | 1013.7 hPa | 0 mm | - | 0 W/m² | - |
| 1778032630 | 10° C | 36% | 1013.7 hPa | 0 mm | - | 0 W/m² | - |
| 1778032328 | 10° C | 35% | 1013.4 hPa | 0 mm | - | 0 W/m² | - |
| 1778031418 | 10.56° C | 34% | 1013.5 hPa | 0 mm | - | 1 W/m² | - |
| 1778027780 | 11.67° C | 32% | 1012.9 hPa | 0 mm | - | 45 W/m² | - |
| 1778027476 | 11.67° C | 32% | 1013.1 hPa | 0 mm | - | 56 W/m² | - |
| 1778027172 | 11.67° C | 33% | 1013.1 hPa | 0 mm | - | 47 W/m² | - |
| 1778026262 | 12.22° C | 32% | 1012.8 hPa | 0 mm | - | 58 W/m² | - |
| 1778025959 | 12.22° C | 32% | 1012.9 hPa | 0 mm | - | 63 W/m² | - |
| 1778024445 | 12.22° C | 32% | 1012.6 hPa | 0 mm | - | 111 W/m² | - |
| 1778023235 | 12.22° C | 33% | 1012.7 hPa | 0 mm | - | 113 W/m² | - |
| 1778019596 | 12.78° C | 33% | 1012 hPa | 0 mm | - | 375 W/m² | - |
| 1778016569 | 13.33° C | 33% | 1012.7 hPa | 0 mm | - | 291 W/m² | - |
| 1778015660 | 12.78° C | 33% | 1012.5 hPa | 0 mm | - | 322 W/m² | - |
| 1778014449 | 12.78° C | 34% | 1012.7 hPa | 0 mm | - | 317 W/m² | - |
| 1778013540 | 12.78° C | 33% | 1012.8 hPa | 0 mm | - | 332 W/m² | - |
| 1778013236 | 13.33° C | 34% | 1012.7 hPa | 0 mm | - | 284 W/m² | - |
| 1778012933 | 12.78° C | 34% | 1012.6 hPa | 0 mm | - | 410 W/m² | - |
| 1778012629 | 12.78° C | 34% | 1012.9 hPa | 0 mm | - | 222 W/m² | - |
| 1778012326 | 13.33° C | 34% | 1012.9 hPa | 0 mm | - | 277 W/m² | - |
* Rain latest hour (hover to see other rain measurements)
** Current wind speed in m/s (hover to see current wind gust speed)